sensor_id;sensor_type;location;lat;lon;timestamp;P1;durP1;ratioP1;P2;durP2;ratioP2
38843;SDS011;24596;48.080;8.362;2023-06-10T00:01:36;9.35;;;6.47;;
38843;SDS011;24596;48.080;8.362;2023-06-10T00:04:02;11.45;;;5.90;;
38843;SDS011;24596;48.080;8.362;2023-06-10T00:06:27;9.50;;;6.45;;
38843;SDS011;24596;48.080;8.362;2023-06-10T00:08:53;10.55;;;5.63;;
38843;SDS011;24596;48.080;8.362;2023-06-10T00:11:19;8.20;;;6.03;;
38843;SDS011;24596;48.080;8.362;2023-06-10T00:13:45;9.35;;;6.45;;
38843;SDS011;24596;48.080;8.362;2023-06-10T00:16:10;10.27;;;6.75;;
38843;SDS011;24596;48.080;8.362;2023-06-10T00:18:35;11.98;;;6.05;;
38843;SDS011;24596;48.080;8.362;2023-06-10T00:21:03;12.07;;;6.35;;
38843;SDS011;24596;48.080;8.362;2023-06-10T00:23:30;10.90;;;6.93;;
38843;SDS011;24596;48.080;8.362;2023-06-10T00:26:02;10.77;;;6.53;;
38843;SDS011;24596;48.080;8.362;2023-06-10T00:28:28;8.60;;;6.13;;
38843;SDS011;24596;48.080;8.362;2023-06-10T00:30:53;12.88;;;6.25;;
38843;SDS011;24596;48.080;8.362;2023-06-10T00:33:18;11.93;;;7.65;;
38843;SDS011;24596;48.080;8.362;2023-06-10T00:35:43;12.25;;;6.53;;
38843;SDS011;24596;48.080;8.362;2023-06-10T00:38:08;9.73;;;6.47;;
38843;SDS011;24596;48.080;8.362;2023-06-10T00:40:38;9.57;;;6.72;;
38843;SDS011;24596;48.080;8.362;2023-06-10T00:43:04;9.82;;;6.10;;
38843;SDS011;24596;48.080;8.362;2023-06-10T00:45:29;10.30;;;6.50;;
38843;SDS011;24596;48.080;8.362;2023-06-10T00:47:55;10.50;;;6.90;;
38843;SDS011;24596;48.080;8.362;2023-06-10T00:50:20;8.77;;;6.50;;
38843;SDS011;24596;48.080;8.362;2023-06-10T00:52:45;9.57;;;6.70;;
38843;SDS011;24596;48.080;8.362;2023-06-10T00:55:13;10.73;;;7.82;;
38843;SDS011;24596;48.080;8.362;2023-06-10T00:57:39;10.55;;;7.22;;
38843;SDS011;24596;48.080;8.362;2023-06-10T01:00:04;11.23;;;7.13;;
38843;SDS011;24596;48.080;8.362;2023-06-10T01:02:32;10.40;;;7.28;;
38843;SDS011;24596;48.080;8.362;2023-06-10T01:04:58;10.45;;;7.10;;
38843;SDS011;24596;48.080;8.362;2023-06-10T01:10:16;10.55;;;7.60;;
38843;SDS011;24596;48.080;8.362;2023-06-10T01:15:14;10.13;;;7.53;;
38843;SDS011;24596;48.080;8.362;2023-06-10T01:17:59;12.27;;;7.88;;
38843;SDS011;24596;48.080;8.362;2023-06-10T01:20:26;11.63;;;8.10;;
38843;SDS011;24596;48.080;8.362;2023-06-10T01:22:53;10.43;;;8.00;;
38843;SDS011;24596;48.080;8.362;2023-06-10T01:25:19;11.38;;;8.23;;
38843;SDS011;24596;48.080;8.362;2023-06-10T01:27:45;10.25;;;7.65;;
38843;SDS011;24596;48.080;8.362;2023-06-10T01:30:13;10.70;;;6.90;;
38843;SDS011;24596;48.080;8.362;2023-06-10T01:32:43;9.93;;;7.40;;
38843;SDS011;24596;48.080;8.362;2023-06-10T01:35:09;11.32;;;7.90;;
38843;SDS011;24596;48.080;8.362;2023-06-10T01:37:35;10.63;;;7.63;;
38843;SDS011;24596;48.080;8.362;2023-06-10T01:40:02;10.35;;;8.13;;
38843;SDS011;24596;48.080;8.362;2023-06-10T01:42:31;13.57;;;8.50;;
38843;SDS011;24596;48.080;8.362;2023-06-10T01:44:56;12.40;;;7.88;;
38843;SDS011;24596;48.080;8.362;2023-06-10T01:47:22;10.88;;;7.70;;
38843;SDS011;24596;48.080;8.362;2023-06-10T01:49:47;12.48;;;8.52;;
38843;SDS011;24596;48.080;8.362;2023-06-10T01:52:12;11.60;;;8.00;;
38843;SDS011;24596;48.080;8.362;2023-06-10T01:54:38;12.45;;;8.45;;
38843;SDS011;24596;48.080;8.362;2023-06-10T01:57:03;10.68;;;7.78;;
38843;SDS011;24596;48.080;8.362;2023-06-10T01:59:28;12.32;;;8.18;;
38843;SDS011;24596;48.080;8.362;2023-06-10T02:01:53;11.90;;;8.55;;
38843;SDS011;24596;48.080;8.362;2023-06-10T02:04:19;10.85;;;8.35;;
38843;SDS011;24596;48.080;8.362;2023-06-10T02:06:44;12.45;;;8.55;;
38843;SDS011;24596;48.080;8.362;2023-06-10T02:09:10;11.20;;;8.43;;
38843;SDS011;24596;48.080;8.362;2023-06-10T02:11:35;13.30;;;8.43;;
38843;SDS011;24596;48.080;8.362;2023-06-10T02:14:00;15.90;;;8.52;;
38843;SDS011;24596;48.080;8.362;2023-06-10T02:16:25;11.90;;;8.68;;
38843;SDS011;24596;48.080;8.362;2023-06-10T02:18:51;11.45;;;8.57;;
38843;SDS011;24596;48.080;8.362;2023-06-10T02:21:16;13.45;;;8.43;;
38843;SDS011;24596;48.080;8.362;2023-06-10T02:23:41;12.18;;;8.80;;
38843;SDS011;24596;48.080;8.362;2023-06-10T02:26:07;12.43;;;8.98;;
38843;SDS011;24596;48.080;8.362;2023-06-10T02:28:44;12.35;;;9.02;;
38843;SDS011;24596;48.080;8.362;2023-06-10T02:31:13;11.65;;;7.55;;
38843;SDS011;24596;48.080;8.362;2023-06-10T02:33:38;13.43;;;8.25;;
38843;SDS011;24596;48.080;8.362;2023-06-10T02:36:05;12.88;;;8.57;;
38843;SDS011;24596;48.080;8.362;2023-06-10T02:38:30;11.85;;;8.38;;
38843;SDS011;24596;48.080;8.362;2023-06-10T02:40:56;9.55;;;7.40;;
38843;SDS011;24596;48.080;8.362;2023-06-10T02:43:21;11.45;;;8.23;;
38843;SDS011;24596;48.080;8.362;2023-06-10T02:45:46;11.43;;;8.50;;
38843;SDS011;24596;48.080;8.362;2023-06-10T02:48:11;10.60;;;8.38;;
38843;SDS011;24596;48.080;8.362;2023-06-10T02:50:36;12.20;;;8.05;;
38843;SDS011;24596;48.080;8.362;2023-06-10T02:53:03;12.20;;;8.75;;
38843;SDS011;24596;48.080;8.362;2023-06-10T02:55:29;12.82;;;9.30;;
38843;SDS011;24596;48.080;8.362;2023-06-10T02:57:55;10.52;;;8.35;;
38843;SDS011;24596;48.080;8.362;2023-06-10T03:00:20;13.10;;;9.95;;
38843;SDS011;24596;48.080;8.362;2023-06-10T03:02:46;13.60;;;9.35;;
38843;SDS011;24596;48.080;8.362;2023-06-10T03:05:11;11.63;;;8.95;;
38843;SDS011;24596;48.080;8.362;2023-06-10T03:07:38;11.00;;;8.35;;
38843;SDS011;24596;48.080;8.362;2023-06-10T03:10:04;11.70;;;8.85;;
38843;SDS011;24596;48.080;8.362;2023-06-10T03:12:29;13.35;;;8.80;;
38843;SDS011;24596;48.080;8.362;2023-06-10T03:14:55;12.18;;;8.68;;
38843;SDS011;24596;48.080;8.362;2023-06-10T03:17:20;13.23;;;8.45;;
38843;SDS011;24596;48.080;8.362;2023-06-10T03:19:45;11.82;;;9.15;;
38843;SDS011;24596;48.080;8.362;2023-06-10T03:22:11;10.38;;;8.23;;
38843;SDS011;24596;48.080;8.362;2023-06-10T03:24:36;12.82;;;8.68;;
38843;SDS011;24596;48.080;8.362;2023-06-10T03:27:06;11.63;;;8.82;;
38843;SDS011;24596;48.080;8.362;2023-06-10T03:29:31;14.25;;;8.82;;
38843;SDS011;24596;48.080;8.362;2023-06-10T03:31:57;11.15;;;8.48;;
38843;SDS011;24596;48.080;8.362;2023-06-10T03:34:22;14.27;;;9.05;;
38843;SDS011;24596;48.080;8.362;2023-06-10T03:36:48;11.32;;;8.20;;
38843;SDS011;24596;48.080;8.362;2023-06-10T03:39:13;12.15;;;8.57;;
38843;SDS011;24596;48.080;8.362;2023-06-10T03:41:39;13.48;;;8.93;;
38843;SDS011;24596;48.080;8.362;2023-06-10T03:44:04;13.10;;;8.30;;
38843;SDS011;24596;48.080;8.362;2023-06-10T03:46:29;11.65;;;8.77;;
38843;SDS011;24596;48.080;8.362;2023-06-10T03:48:54;11.77;;;8.85;;
38843;SDS011;24596;48.080;8.362;2023-06-10T03:51:20;12.40;;;9.05;;
38843;SDS011;24596;48.080;8.362;2023-06-10T03:53:46;13.48;;;9.40;;
38843;SDS011;24596;48.080;8.362;2023-06-10T03:56:11;15.15;;;9.02;;
38843;SDS011;24596;48.080;8.362;2023-06-10T03:58:36;11.25;;;8.77;;
38843;SDS011;24596;48.080;8.362;2023-06-10T04:01:01;12.38;;;9.38;;
38843;SDS011;24596;48.080;8.362;2023-06-10T04:03:26;12.27;;;9.43;;
38843;SDS011;24596;48.080;8.362;2023-06-10T04:05:52;15.05;;;9.57;;
38843;SDS011;24596;48.080;8.362;2023-06-10T04:08:17;14.32;;;9.70;;
38843;SDS011;24596;48.080;8.362;2023-06-10T04:10:43;14.02;;;9.93;;
38843;SDS011;24596;48.080;8.362;2023-06-10T04:13:08;13.05;;;9.23;;
38843;SDS011;24596;48.080;8.362;2023-06-10T04:15:34;14.05;;;9.25;;
38843;SDS011;24596;48.080;8.362;2023-06-10T04:17:59;11.98;;;8.93;;
38843;SDS011;24596;48.080;8.362;2023-06-10T04:20:26;13.48;;;9.48;;
38843;SDS011;24596;48.080;8.362;2023-06-10T04:22:51;12.25;;;9.00;;
38843;SDS011;24596;48.080;8.362;2023-06-10T04:25:16;13.80;;;9.77;;
38843;SDS011;24596;48.080;8.362;2023-06-10T04:27:42;14.40;;;9.57;;
38843;SDS011;24596;48.080;8.362;2023-06-10T04:30:08;17.88;;;9.50;;
38843;SDS011;24596;48.080;8.362;2023-06-10T04:32:33;13.48;;;9.88;;
38843;SDS011;24596;48.080;8.362;2023-06-10T04:34:59;12.18;;;9.38;;
38843;SDS011;24596;48.080;8.362;2023-06-10T04:37:24;13.27;;;9.98;;
38843;SDS011;24596;48.080;8.362;2023-06-10T04:39:50;12.90;;;9.82;;
38843;SDS011;24596;48.080;8.362;2023-06-10T04:42:15;13.27;;;10.32;;
38843;SDS011;24596;48.080;8.362;2023-06-10T04:44:40;13.90;;;10.40;;
38843;SDS011;24596;48.080;8.362;2023-06-10T04:47:05;19.52;;;10.27;;
38843;SDS011;24596;48.080;8.362;2023-06-10T04:49:32;16.27;;;10.98;;
38843;SDS011;24596;48.080;8.362;2023-06-10T04:51:58;15.75;;;10.98;;
38843;SDS011;24596;48.080;8.362;2023-06-10T04:54:24;14.98;;;10.93;;
38843;SDS011;24596;48.080;8.362;2023-06-10T04:56:50;16.73;;;11.60;;
38843;SDS011;24596;48.080;8.362;2023-06-10T04:59:15;14.07;;;10.68;;
38843;SDS011;24596;48.080;8.362;2023-06-10T05:01:40;14.25;;;11.20;;
38843;SDS011;24596;48.080;8.362;2023-06-10T05:04:05;14.25;;;10.77;;
38843;SDS011;24596;48.080;8.362;2023-06-10T05:06:31;15.38;;;11.18;;
38843;SDS011;24596;48.080;8.362;2023-06-10T05:08:56;15.43;;;11.27;;
38843;SDS011;24596;48.080;8.362;2023-06-10T05:11:21;14.30;;;11.18;;
38843;SDS011;24596;48.080;8.362;2023-06-10T05:13:47;15.60;;;11.90;;
38843;SDS011;24596;48.080;8.362;2023-06-10T05:16:12;14.05;;;10.55;;
38843;SDS011;24596;48.080;8.362;2023-06-10T05:18:37;14.63;;;11.00;;
38843;SDS011;24596;48.080;8.362;2023-06-10T05:21:02;13.85;;;10.93;;
38843;SDS011;24596;48.080;8.362;2023-06-10T05:23:28;14.43;;;11.27;;
38843;SDS011;24596;48.080;8.362;2023-06-10T05:25:53;13.93;;;10.60;;
38843;SDS011;24596;48.080;8.362;2023-06-10T05:28:19;14.68;;;10.82;;
38843;SDS011;24596;48.080;8.362;2023-06-10T05:30:44;15.68;;;10.93;;
38843;SDS011;24596;48.080;8.362;2023-06-10T05:33:10;15.93;;;11.52;;
38843;SDS011;24596;48.080;8.362;2023-06-10T05:35:35;14.55;;;11.00;;
38843;SDS011;24596;48.080;8.362;2023-06-10T05:38:00;15.63;;;11.80;;
38843;SDS011;24596;48.080;8.362;2023-06-10T05:40:25;13.15;;;11.05;;
38843;SDS011;24596;48.080;8.362;2023-06-10T05:42:50;16.65;;;10.90;;
38843;SDS011;24596;48.080;8.362;2023-06-10T05:45:16;13.23;;;10.53;;
38843;SDS011;24596;48.080;8.362;2023-06-10T05:47:41;13.20;;;10.80;;
38843;SDS011;24596;48.080;8.362;2023-06-10T05:50:06;14.35;;;11.45;;
38843;SDS011;24596;48.080;8.362;2023-06-10T05:52:33;13.65;;;11.25;;
38843;SDS011;24596;48.080;8.362;2023-06-10T05:54:59;16.33;;;10.48;;
38843;SDS011;24596;48.080;8.362;2023-06-10T05:57:24;13.65;;;10.10;;
38843;SDS011;24596;48.080;8.362;2023-06-10T05:59:50;13.77;;;8.75;;
38843;SDS011;24596;48.080;8.362;2023-06-10T06:02:15;12.75;;;8.48;;
38843;SDS011;24596;48.080;8.362;2023-06-10T06:04:40;12.02;;;8.88;;
38843;SDS011;24596;48.080;8.362;2023-06-10T06:07:05;12.13;;;8.32;;
38843;SDS011;24596;48.080;8.362;2023-06-10T06:09:31;12.40;;;9.35;;
38843;SDS011;24596;48.080;8.362;2023-06-10T06:11:56;12.60;;;9.25;;
38843;SDS011;24596;48.080;8.362;2023-06-10T06:14:21;13.65;;;8.15;;
38843;SDS011;24596;48.080;8.362;2023-06-10T06:16:46;12.05;;;8.45;;
38843;SDS011;24596;48.080;8.362;2023-06-10T06:19:12;11.18;;;7.97;;
38843;SDS011;24596;48.080;8.362;2023-06-10T06:21:37;10.70;;;7.80;;
38843;SDS011;24596;48.080;8.362;2023-06-10T06:24:02;12.32;;;7.82;;
38843;SDS011;24596;48.080;8.362;2023-06-10T06:26:28;12.60;;;8.13;;
38843;SDS011;24596;48.080;8.362;2023-06-10T06:28:53;10.20;;;7.80;;
38843;SDS011;24596;48.080;8.362;2023-06-10T06:31:18;11.30;;;7.78;;
38843;SDS011;24596;48.080;8.362;2023-06-10T06:33:43;11.45;;;7.93;;
38843;SDS011;24596;48.080;8.362;2023-06-10T06:36:08;10.85;;;7.60;;
38843;SDS011;24596;48.080;8.362;2023-06-10T06:38:34;11.85;;;7.55;;
38843;SDS011;24596;48.080;8.362;2023-06-10T06:40:59;12.23;;;7.57;;
38843;SDS011;24596;48.080;8.362;2023-06-10T06:43:30;10.75;;;7.80;;
38843;SDS011;24596;48.080;8.362;2023-06-10T06:45:56;11.63;;;8.55;;
38843;SDS011;24596;48.080;8.362;2023-06-10T06:48:22;10.60;;;7.97;;
38843;SDS011;24596;48.080;8.362;2023-06-10T06:50:47;11.73;;;7.93;;
38843;SDS011;24596;48.080;8.362;2023-06-10T06:53:12;10.88;;;7.13;;
38843;SDS011;24596;48.080;8.362;2023-06-10T06:55:37;10.75;;;7.45;;
38843;SDS011;24596;48.080;8.362;2023-06-10T06:58:02;11.90;;;7.90;;
38843;SDS011;24596;48.080;8.362;2023-06-10T07:00:29;9.88;;;7.43;;
38843;SDS011;24596;48.080;8.362;2023-06-10T07:02:54;11.52;;;7.50;;
38843;SDS011;24596;48.080;8.362;2023-06-10T07:05:20;12.65;;;7.88;;
38843;SDS011;24596;48.080;8.362;2023-06-10T07:07:45;12.25;;;7.40;;
38843;SDS011;24596;48.080;8.362;2023-06-10T07:10:11;10.52;;;6.80;;
38843;SDS011;24596;48.080;8.362;2023-06-10T07:12:36;11.48;;;6.95;;
38843;SDS011;24596;48.080;8.362;2023-06-10T07:15:01;11.68;;;7.70;;
38843;SDS011;24596;48.080;8.362;2023-06-10T07:17:26;10.35;;;7.32;;
38843;SDS011;24596;48.080;8.362;2023-06-10T07:19:52;10.80;;;7.22;;
38843;SDS011;24596;48.080;8.362;2023-06-10T07:22:17;9.82;;;7.28;;
38843;SDS011;24596;48.080;8.362;2023-06-10T07:24:42;12.27;;;7.72;;
38843;SDS011;24596;48.080;8.362;2023-06-10T07:27:08;10.57;;;7.83;;
38843;SDS011;24596;48.080;8.362;2023-06-10T07:29:33;9.68;;;7.20;;
38843;SDS011;24596;48.080;8.362;2023-06-10T07:32:00;10.20;;;6.90;;
38843;SDS011;24596;48.080;8.362;2023-06-10T07:34:25;10.18;;;7.30;;
38843;SDS011;24596;48.080;8.362;2023-06-10T07:36:51;9.07;;;7.05;;
38843;SDS011;24596;48.080;8.362;2023-06-10T07:39:16;11.77;;;7.63;;
38843;SDS011;24596;48.080;8.362;2023-06-10T07:41:41;9.57;;;7.30;;
38843;SDS011;24596;48.080;8.362;2023-06-10T07:44:06;10.40;;;6.60;;
38843;SDS011;24596;48.080;8.362;2023-06-10T07:46:31;9.00;;;6.93;;
38843;SDS011;24596;48.080;8.362;2023-06-10T07:48:57;11.33;;;7.20;;
38843;SDS011;24596;48.080;8.362;2023-06-10T07:51:22;10.60;;;7.07;;
38843;SDS011;24596;48.080;8.362;2023-06-10T07:53:47;12.03;;;6.67;;
38843;SDS011;24596;48.080;8.362;2023-06-10T07:56:12;10.07;;;7.07;;
38843;SDS011;24596;48.080;8.362;2023-06-10T07:58:38;9.80;;;7.13;;
38843;SDS011;24596;48.080;8.362;2023-06-10T08:01:03;10.45;;;7.05;;
38843;SDS011;24596;48.080;8.362;2023-06-10T08:03:28;11.60;;;6.78;;
38843;SDS011;24596;48.080;8.362;2023-06-10T08:05:53;10.10;;;6.63;;
38843;SDS011;24596;48.080;8.362;2023-06-10T08:08:19;9.90;;;6.85;;
38843;SDS011;24596;48.080;8.362;2023-06-10T08:10:44;9.07;;;6.70;;
38843;SDS011;24596;48.080;8.362;2023-06-10T08:13:09;14.40;;;6.97;;
38843;SDS011;24596;48.080;8.362;2023-06-10T08:15:34;10.40;;;6.80;;
38843;SDS011;24596;48.080;8.362;2023-06-10T08:18:00;9.10;;;6.20;;
38843;SDS011;24596;48.080;8.362;2023-06-10T08:20:25;9.40;;;6.83;;
38843;SDS011;24596;48.080;8.362;2023-06-10T08:22:50;10.98;;;6.93;;
38843;SDS011;24596;48.080;8.362;2023-06-10T08:25:15;15.30;;;7.38;;
38843;SDS011;24596;48.080;8.362;2023-06-10T08:27:41;10.35;;;6.72;;
38843;SDS011;24596;48.080;8.362;2023-06-10T08:30:06;12.23;;;7.07;;
38843;SDS011;24596;48.080;8.362;2023-06-10T08:32:31;10.02;;;6.45;;
38843;SDS011;24596;48.080;8.362;2023-06-10T08:34:57;10.00;;;6.20;;
38843;SDS011;24596;48.080;8.362;2023-06-10T08:37:22;10.02;;;6.57;;
38843;SDS011;24596;48.080;8.362;2023-06-10T08:39:47;9.25;;;6.53;;
38843;SDS011;24596;48.080;8.362;2023-06-10T08:42:28;10.35;;;6.65;;
38843;SDS011;24596;48.080;8.362;2023-06-10T08:44:54;22.67;;;9.18;;
38843;SDS011;24596;48.080;8.362;2023-06-10T08:47:24;11.02;;;6.70;;
38843;SDS011;24596;48.080;8.362;2023-06-10T08:49:50;10.50;;;6.22;;
38843;SDS011;24596;48.080;8.362;2023-06-10T08:52:16;9.73;;;6.45;;
38843;SDS011;24596;48.080;8.362;2023-06-10T08:54:42;10.00;;;6.50;;
38843;SDS011;24596;48.080;8.362;2023-06-10T08:57:08;8.70;;;6.70;;
38843;SDS011;24596;48.080;8.362;2023-06-10T08:59:33;8.90;;;6.32;;
38843;SDS011;24596;48.080;8.362;2023-06-10T09:01:58;9.68;;;6.53;;
38843;SDS011;24596;48.080;8.362;2023-06-10T09:04:24;10.32;;;6.22;;
38843;SDS011;24596;48.080;8.362;2023-06-10T09:06:50;10.50;;;6.45;;
38843;SDS011;24596;48.080;8.362;2023-06-10T09:09:16;9.95;;;5.97;;
38843;SDS011;24596;48.080;8.362;2023-06-10T09:11:44;11.10;;;6.65;;
38843;SDS011;24596;48.080;8.362;2023-06-10T09:14:09;9.40;;;6.95;;
38843;SDS011;24596;48.080;8.362;2023-06-10T09:16:34;9.47;;;6.63;;
38843;SDS011;24596;48.080;8.362;2023-06-10T09:19:00;8.73;;;6.30;;
38843;SDS011;24596;48.080;8.362;2023-06-10T09:21:26;10.00;;;6.07;;
38843;SDS011;24596;48.080;8.362;2023-06-10T09:23:51;8.90;;;6.05;;
38843;SDS011;24596;48.080;8.362;2023-06-10T09:26:16;9.82;;;6.10;;
38843;SDS011;24596;48.080;8.362;2023-06-10T09:28:48;8.68;;;6.07;;
38843;SDS011;24596;48.080;8.362;2023-06-10T09:31:14;8.95;;;5.72;;
38843;SDS011;24596;48.080;8.362;2023-06-10T09:33:43;9.60;;;5.63;;
38843;SDS011;24596;48.080;8.362;2023-06-10T09:36:08;8.83;;;5.83;;
38843;SDS011;24596;48.080;8.362;2023-06-10T09:38:34;8.60;;;5.97;;
38843;SDS011;24596;48.080;8.362;2023-06-10T09:40:59;9.18;;;5.75;;
38843;SDS011;24596;48.080;8.362;2023-06-10T09:43:40;9.57;;;5.97;;
38843;SDS011;24596;48.080;8.362;2023-06-10T09:46:05;7.45;;;5.38;;
38843;SDS011;24596;48.080;8.362;2023-06-10T09:48:34;9.47;;;6.50;;
38843;SDS011;24596;48.080;8.362;2023-06-10T09:50:59;10.25;;;6.15;;
38843;SDS011;24596;48.080;8.362;2023-06-10T09:53:24;9.73;;;6.63;;
38843;SDS011;24596;48.080;8.362;2023-06-10T09:55:51;10.10;;;6.53;;
38843;SDS011;24596;48.080;8.362;2023-06-10T09:58:17;9.55;;;5.95;;
38843;SDS011;24596;48.080;8.362;2023-06-10T10:00:42;7.55;;;5.80;;
38843;SDS011;24596;48.080;8.362;2023-06-10T10:03:07;8.20;;;5.97;;
38843;SDS011;24596;48.080;8.362;2023-06-10T10:05:32;8.02;;;5.55;;
38843;SDS011;24596;48.080;8.362;2023-06-10T10:07:58;6.70;;;5.00;;
38843;SDS011;24596;48.080;8.362;2023-06-10T10:10:23;8.83;;;6.20;;
38843;SDS011;24596;48.080;8.362;2023-06-10T10:12:55;9.50;;;6.03;;
38843;SDS011;24596;48.080;8.362;2023-06-10T10:15:23;7.85;;;5.20;;
38843;SDS011;24596;48.080;8.362;2023-06-10T10:17:51;6.75;;;5.05;;
38843;SDS011;24596;48.080;8.362;2023-06-10T10:20:17;9.77;;;5.03;;
38843;SDS011;24596;48.080;8.362;2023-06-10T10:22:45;11.90;;;5.75;;
38843;SDS011;24596;48.080;8.362;2023-06-10T10:25:13;9.50;;;5.45;;
38843;SDS011;24596;48.080;8.362;2023-06-10T10:27:51;8.27;;;5.20;;
38843;SDS011;24596;48.080;8.362;2023-06-10T10:30:17;8.32;;;5.75;;
38843;SDS011;24596;48.080;8.362;2023-06-10T10:32:45;8.63;;;6.20;;
38843;SDS011;24596;48.080;8.362;2023-06-10T10:35:20;8.85;;;5.57;;
38843;SDS011;24596;48.080;8.362;2023-06-10T10:37:48;7.95;;;5.47;;
38843;SDS011;24596;48.080;8.362;2023-06-10T10:40:14;8.07;;;5.28;;
38843;SDS011;24596;48.080;8.362;2023-06-10T10:42:39;8.40;;;5.60;;
38843;SDS011;24596;48.080;8.362;2023-06-10T10:45:06;8.00;;;5.32;;
38843;SDS011;24596;48.080;8.362;2023-06-10T10:47:31;8.18;;;5.93;;
38843;SDS011;24596;48.080;8.362;2023-06-10T10:49:58;11.27;;;6.28;;
38843;SDS011;24596;48.080;8.362;2023-06-10T10:52:24;10.43;;;6.32;;
38843;SDS011;24596;48.080;8.362;2023-06-10T10:54:53;7.75;;;6.13;;
38843;SDS011;24596;48.080;8.362;2023-06-10T10:57:19;7.45;;;5.53;;
38843;SDS011;24596;48.080;8.362;2023-06-10T10:59:51;6.97;;;4.57;;
38843;SDS011;24596;48.080;8.362;2023-06-10T11:02:17;7.07;;;4.78;;
38843;SDS011;24596;48.080;8.362;2023-06-10T11:04:46;8.90;;;5.55;;
38843;SDS011;24596;48.080;8.362;2023-06-10T11:07:12;9.20;;;6.32;;
38843;SDS011;24596;48.080;8.362;2023-06-10T11:09:40;7.95;;;5.95;;
38843;SDS011;24596;48.080;8.362;2023-06-10T11:12:22;7.82;;;5.78;;
38843;SDS011;24596;48.080;8.362;2023-06-10T11:14:53;8.85;;;5.80;;
38843;SDS011;24596;48.080;8.362;2023-06-10T11:17:19;11.35;;;5.95;;
38843;SDS011;24596;48.080;8.362;2023-06-10T11:19:45;9.30;;;5.65;;
38843;SDS011;24596;48.080;8.362;2023-06-10T11:22:15;8.38;;;5.97;;
38843;SDS011;24596;48.080;8.362;2023-06-10T11:24:40;8.82;;;6.22;;
38843;SDS011;24596;48.080;8.362;2023-06-10T11:27:18;8.93;;;5.63;;
38843;SDS011;24596;48.080;8.362;2023-06-10T11:32:32;8.70;;;6.25;;
38843;SDS011;24596;48.080;8.362;2023-06-10T11:34:57;8.40;;;6.10;;
38843;SDS011;24596;48.080;8.362;2023-06-10T11:37:22;7.55;;;5.70;;
38843;SDS011;24596;48.080;8.362;2023-06-10T11:39:52;10.82;;;6.10;;
38843;SDS011;24596;48.080;8.362;2023-06-10T11:42:17;9.18;;;6.43;;
38843;SDS011;24596;48.080;8.362;2023-06-10T11:44:48;7.65;;;5.80;;
38843;SDS011;24596;48.080;8.362;2023-06-10T11:47:13;8.52;;;6.03;;
38843;SDS011;24596;48.080;8.362;2023-06-10T11:49:38;9.35;;;5.95;;
38843;SDS011;24596;48.080;8.362;2023-06-10T11:52:04;8.00;;;5.72;;
38843;SDS011;24596;48.080;8.362;2023-06-10T11:54:29;10.55;;;5.72;;
38843;SDS011;24596;48.080;8.362;2023-06-10T11:56:58;7.60;;;5.73;;
38843;SDS011;24596;48.080;8.362;2023-06-10T11:59:26;8.80;;;5.75;;
38843;SDS011;24596;48.080;8.362;2023-06-10T12:01:52;8.07;;;6.32;;
38843;SDS011;24596;48.080;8.362;2023-06-10T12:04:17;7.53;;;5.20;;
38843;SDS011;24596;48.080;8.362;2023-06-10T12:06:52;9.77;;;5.60;;
38843;SDS011;24596;48.080;8.362;2023-06-10T12:09:18;8.52;;;5.60;;
38843;SDS011;24596;48.080;8.362;2023-06-10T12:11:44;9.43;;;6.15;;
38843;SDS011;24596;48.080;8.362;2023-06-10T12:14:09;8.82;;;5.55;;
38843;SDS011;24596;48.080;8.362;2023-06-10T12:16:35;11.30;;;5.60;;
38843;SDS011;24596;48.080;8.362;2023-06-10T12:19:04;9.30;;;5.95;;
38843;SDS011;24596;48.080;8.362;2023-06-10T12:21:29;10.50;;;5.70;;
38843;SDS011;24596;48.080;8.362;2023-06-10T12:24:00;8.20;;;5.40;;
38843;SDS011;24596;48.080;8.362;2023-06-10T12:26:33;8.20;;;5.60;;
38843;SDS011;24596;48.080;8.362;2023-06-10T12:28:58;7.90;;;5.25;;
38843;SDS011;24596;48.080;8.362;2023-06-10T12:31:24;8.40;;;5.30;;
38843;SDS011;24596;48.080;8.362;2023-06-10T12:33:49;7.90;;;5.80;;
38843;SDS011;24596;48.080;8.362;2023-06-10T12:36:18;7.60;;;5.40;;
38843;SDS011;24596;48.080;8.362;2023-06-10T12:38:43;6.68;;;4.75;;
38843;SDS011;24596;48.080;8.362;2023-06-10T12:41:09;9.40;;;5.13;;
38843;SDS011;24596;48.080;8.362;2023-06-10T12:43:34;8.32;;;4.70;;
38843;SDS011;24596;48.080;8.362;2023-06-10T12:46:09;6.82;;;4.70;;
38843;SDS011;24596;48.080;8.362;2023-06-10T12:48:34;7.22;;;4.65;;
38843;SDS011;24596;48.080;8.362;2023-06-10T12:51:00;6.15;;;4.13;;
38843;SDS011;24596;48.080;8.362;2023-06-10T12:53:26;6.70;;;4.18;;
38843;SDS011;24596;48.080;8.362;2023-06-10T12:55:51;7.25;;;4.18;;
38843;SDS011;24596;48.080;8.362;2023-06-10T12:58:18;7.32;;;3.78;;
38843;SDS011;24596;48.080;8.362;2023-06-10T13:00:44;7.32;;;3.65;;
38843;SDS011;24596;48.080;8.362;2023-06-10T13:03:09;6.78;;;4.03;;
38843;SDS011;24596;48.080;8.362;2023-06-10T13:05:35;6.63;;;4.20;;
38843;SDS011;24596;48.080;8.362;2023-06-10T13:08:02;5.65;;;3.50;;
38843;SDS011;24596;48.080;8.362;2023-06-10T13:10:27;6.43;;;3.83;;
38843;SDS011;24596;48.080;8.362;2023-06-10T13:12:52;5.73;;;3.93;;
38843;SDS011;24596;48.080;8.362;2023-06-10T13:15:19;6.00;;;3.97;;
38843;SDS011;24596;48.080;8.362;2023-06-10T13:17:44;7.03;;;4.35;;
38843;SDS011;24596;48.080;8.362;2023-06-10T13:20:14;8.20;;;4.07;;
38843;SDS011;24596;48.080;8.362;2023-06-10T13:22:39;5.35;;;3.38;;
38843;SDS011;24596;48.080;8.362;2023-06-10T13:25:05;5.83;;;3.60;;
38843;SDS011;24596;48.080;8.362;2023-06-10T13:27:31;6.45;;;4.10;;
38843;SDS011;24596;48.080;8.362;2023-06-10T13:29:57;6.47;;;4.25;;
38843;SDS011;24596;48.080;8.362;2023-06-10T13:32:22;6.73;;;3.50;;
38843;SDS011;24596;48.080;8.362;2023-06-10T13:34:47;5.97;;;3.97;;
38843;SDS011;24596;48.080;8.362;2023-06-10T13:37:14;5.55;;;3.38;;
38843;SDS011;24596;48.080;8.362;2023-06-10T13:39:39;5.97;;;3.40;;
38843;SDS011;24596;48.080;8.362;2023-06-10T13:42:05;5.55;;;3.15;;
38843;SDS011;24596;48.080;8.362;2023-06-10T13:44:32;12.10;;;2.90;;
38843;SDS011;24596;48.080;8.362;2023-06-10T13:47:01;6.80;;;3.83;;
38843;SDS011;24596;48.080;8.362;2023-06-10T13:49:26;5.95;;;3.85;;
38843;SDS011;24596;48.080;8.362;2023-06-10T13:51:51;6.90;;;3.25;;
38843;SDS011;24596;48.080;8.362;2023-06-10T13:54:16;5.43;;;3.00;;
38843;SDS011;24596;48.080;8.362;2023-06-10T13:56:41;6.83;;;3.40;;
38843;SDS011;24596;48.080;8.362;2023-06-10T13:59:07;5.25;;;3.03;;
38843;SDS011;24596;48.080;8.362;2023-06-10T14:01:32;6.43;;;3.35;;
38843;SDS011;24596;48.080;8.362;2023-06-10T14:03:57;5.15;;;3.20;;
38843;SDS011;24596;48.080;8.362;2023-06-10T14:06:23;5.07;;;2.97;;
38843;SDS011;24596;48.080;8.362;2023-06-10T14:08:48;5.60;;;3.22;;
38843;SDS011;24596;48.080;8.362;2023-06-10T14:11:13;5.67;;;3.60;;
38843;SDS011;24596;48.080;8.362;2023-06-10T14:13:38;5.32;;;3.13;;
38843;SDS011;24596;48.080;8.362;2023-06-10T14:16:04;5.30;;;2.97;;
38843;SDS011;24596;48.080;8.362;2023-06-10T14:18:30;5.18;;;3.05;;
38843;SDS011;24596;48.080;8.362;2023-06-10T14:20:55;5.50;;;3.30;;
38843;SDS011;24596;48.080;8.362;2023-06-10T14:23:20;6.72;;;3.05;;
38843;SDS011;24596;48.080;8.362;2023-06-10T14:25:45;6.13;;;3.05;;
38843;SDS011;24596;48.080;8.362;2023-06-10T14:28:11;5.83;;;3.27;;
38843;SDS011;24596;48.080;8.362;2023-06-10T14:30:36;5.43;;;2.80;;
38843;SDS011;24596;48.080;8.362;2023-06-10T14:33:01;5.73;;;3.40;;
38843;SDS011;24596;48.080;8.362;2023-06-10T14:35:26;8.20;;;3.53;;
38843;SDS011;24596;48.080;8.362;2023-06-10T14:37:52;4.72;;;3.08;;
38843;SDS011;24596;48.080;8.362;2023-06-10T14:40:17;6.53;;;3.08;;